CYQL

Lethbridge County Airport

Lethbridge, Alberta, Canada
TAF CYQL 211738Z 2118/2206 33005KT P6SM FEW040 FM212000 26012KT P6SM BKN060 TEMPO 2120/2204 P6SM -SHRA OVC060 PROB30 2120/2204 VRB20G30KT 6SM TSRA OVC060CB RMK NXT FCST BY 220000Z
Issued Valid From Valid To
Jun-21 @ 17:38 UTC
(26 minutes ago)
Jun-21 @ 18:00 UTC
(4 minutes ago)
Jun-22 @ 06:00 UTC
(in 12 hours)
Jun-21 @ 18:00 to Jun-21 @ 20:00
TAF CYQL 211738Z 2118/2206 33005KT P6SM FEW040
Wind Visibility Clouds
330° at 5 knots Greater than 6 miles
  • Few at 4,000' AGL
Temporary Jun-21 @ 20:00 to Jun-22 @ 04:00
TEMPO 2120/2204 P6SM -SHRA OVC060
Visibility Clouds Conditions
Greater than 6 miles
  • Overcast at 6,000' AGL
  • Light Rain
Probable  (Probability 30%) Jun-21 @ 20:00 to Jun-22 @ 04:00
PROB30 2120/2204 VRB20G30KT 6SM TSRA OVC060CB RMK NXT FCST BY 220000Z
Wind Visibility Clouds Conditions
Variable at 20 knots
 Gusting to 30 knots
6 miles
  • Overcast at 6,000' AGL
  • Thunderstorm
  • Rain
From Jun-21 @ 20:00 to Jun-22 @ 06:00
FM212000 26012KT P6SM BKN060
Wind Visibility Clouds
260° at 12 knots Greater than 6 miles
  • Broken at 6,000' AGL
TAF CYQL 211738Z 2118/2206 33005KT P6SM FEW040 FM212000 26012KT P6SM BKN060 TEMPO 2120/2204 P6SM -SHRA OVC060 PROB30 2120/2204 VRB20G30KT 6SM TSRA OVC060CB RMK NXT FCST BY 220000Z
Issued Jun-21 @ 17:38 UTC
(26 minutes ago)
Valid From Jun-21 @ 18:00 UTC
(4 minutes ago)
Valid To Jun-22 @ 06:00 UTC
(in 12 hours)
Jun-21 @ 18:00 - Jun-21 @ 20:00
Wind Visibility
330° at 5 knots Greater than 6 miles
Clouds
  • Few at 4,000' AGL
Temporary Jun-21 @ 20:00 - Jun-22 @ 04:00
Clouds
  • Overcast at 6,000' AGL
Conditions
  • Light Rain
Probability 30% Probable Jun-21 @ 20:00 - Jun-22 @ 04:00
Wind Visibility
Variable at 20 knots
 Gusting to 30 knots
6 miles
Clouds
  • Overcast at 6,000' AGL
Conditions
  • Thunderstorm
  • Rain
From Jun-21 @ 20:00 - Jun-22 @ 06:00
Wind Visibility
260° at 12 knots Greater than 6 miles
Clouds
  • Broken at 6,000' AGL